Airfield :
LOGIN :

Register | Disclaimer

   EN    FR    IT 

 










Legend :    VFR   Marginal VFR   IFR   Intensive IFR   Very Intensive IFR
Visi :
Ceiling :
>= 8 km
>= 3000ft
5 to 8 km
1000 to 3000 ft
1500m to 5 km
500 to 1000 ft
800 to 1500m
200 to 500 ft
< 800m
< 200 ft
Symbols :   Thunderstorms  Fog  Heavy snow  Heavy precipitations  Wind > 20 kt
SIGMETs :     Misc.  Thunderstorms  Icing  Turbulence  Mountain Waves  Volcanic Ashes






- Airport Elevation : 1058 ft
- IATA code : SCN


EDDR - Saarbrücken

CURRENT METAR :
  • 031350Z 20010KT 170V230 9999 VCSH FEW014CB 19/14 Q1013 TEMPO SHRA BKN012CB

EXPIRED METARs :
  • 031320Z 17009KT 140V210 9999 FEW013 19/15 Q1013 TEMPO SHRA BKN012CB
  • 031250Z 19009KT 160V230 9999 FEW010 18/15 Q1013 TEMPO SHRA BKN012CB
  • 031220Z 18006KT 140V220 9999 FEW006 16/14 Q1013 TEMPO SHRA BKN012CB
  • 031150Z 18007KT 150V210 9999 -SHRA FEW009 SCT012TCU 16/14 Q1013 TEMPO SHRA BKN012CB
  • 031120Z 18008KT 150V210 9999 -SHRA FEW009 FEW012TCU 16/14 Q1014 TEMPO SHRA BKN012CB

TAF TAF EDDR
Valid from the 03 at 12:00 until the 04 at 12:00 UTC


031100Z 0312/0412 20008KT 9999 SCT020
TEMPO 0312/0320 SHRA BKN020CB
PROB30
TEMPO 0312/0316 23015G25KT 4000 TSRA BKN012CB
BECMG 0319/0321 BKN012
TEMPO 0321/0406 2500 BR BKN004
BECMG 0407/0409 SCT020



MET'MAP, your aeronautical weather chart ! - Copyright ORBIFLY December 2007 - Disclaimer

ORBIFLY MET'MAP TEAM :

Programming & Development : Alexandra Zaïnal
Concept & original design : Baudouin d'Aumeries
Assistance for programming : Marc-Olivier Méhu
Technical & hardware support : Manuel Goepfert

Contact : metmap@orbifly.com




SOURCES & CREDITS :

   NOAA